CYTS

Timmins Airport

Timmins, , Canada
TAF CYTS 221938Z 2220/2308 02008KT P6SM SCT120 BKN180 BECMG 2306/2308 10005KT RMK NXT FCST BY 230200Z
Issued Valid From Valid To
Jul-22 @ 19:38 UTC
(31 minutes ago)
Jul-22 @ 20:00 UTC
(9 minutes ago)
Jul-23 @ 08:00 UTC
(in 12 hours)
Jul-22 @ 20:00 to Jul-23 @ 06:00
TAF CYTS 221938Z 2220/2308 02008KT P6SM SCT120 BKN180
Wind Visibility Clouds
20° at 8 knots Greater than 6 miles
  • Scattered at 12,000' AGL
  • Broken at 18,000' AGL
Becoming Jul-23 @ 06:00 to Jul-23 @ 08:00
BECMG 2306/2308 10005KT RMK NXT FCST BY 230200Z
Wind Visibility Clouds
100° at 5 knots Greater than 6 miles
  • Scattered at 12,000' AGL
  • Broken at 18,000' AGL
TAF CYTS 221938Z 2220/2308 02008KT P6SM SCT120 BKN180 BECMG 2306/2308 10005KT RMK NXT FCST BY 230200Z
Issued Jul-22 @ 19:38 UTC
(31 minutes ago)
Valid From Jul-22 @ 20:00 UTC
(9 minutes ago)
Valid To Jul-23 @ 08:00 UTC
(in 12 hours)
Jul-22 @ 20:00 - Jul-23 @ 06:00
Wind Visibility
20° at 8 knots Greater than 6 miles
Clouds
  • Scattered at 12,000' AGL
  • Broken at 18,000' AGL
Becoming Jul-23 @ 06:00 - Jul-23 @ 08:00
Wind Visibility
100° at 5 knots Greater than 6 miles
Clouds
  • Scattered at 12,000' AGL
  • Broken at 18,000' AGL